Time;durP1;ratioP1;P1;durP2;ratioP2;P2;SDS_P1;SDS_P2;PMS_P1;PMS_P2;Temp;Humidity;BMP_temperature;BMP_pressure;BME280_temperature;BME280_humidity;BME280_pressure;Samples;Min_cycle;Max_cycle;Signal;HPM_P1;HPM_P2
2020/12/14 00:02:23;;;;;;;10.33;3.07;;;;;;;;;;5045172;28;20108;-81
2020/12/14 00:04:49;;;;;;;15.93;4.67;;;;;;;;;;5062820;28;20047;-82
2020/12/14 00:07:15;;;;;;;9.20;3.70;;;;;;;;;;5062703;28;20029;-81
2020/12/14 00:09:41;;;;;;;7.23;3.73;;;;;;;;;;5062709;28;20059;-84
2020/12/14 00:12:10;;;;;;;10.70;3.63;;;;;;;;;;5046683;28;20013;-81
2020/12/14 00:14:36;;;;;;;11.63;3.03;;;;;;;;;;5060594;28;20033;-81
2020/12/14 00:17:02;;;;;;;9.13;3.40;;;;;;;;;;5043883;28;20009;-81
2020/12/14 00:19:28;;;;;;;17.93;4.23;;;;;;;;;;5077927;28;20087;-81
2020/12/14 00:21:54;;;;;;;10.40;4.77;;;;;;;;;;5077872;28;20009;-81
2020/12/14 00:24:20;;;;;;;13.70;3.67;;;;;;;;;;5058400;28;20040;-80
2020/12/14 00:26:46;;;;;;;8.43;4.40;;;;;;;;;;5076506;28;20089;-80
2020/12/14 00:29:12;;;;;;;11.13;5.07;;;;;;;;;;5070876;28;20048;-80
2020/12/14 00:31:38;;;;;;;11.20;3.60;;;;;;;;;;5044915;28;20086;-82
2020/12/14 00:34:04;;;;;;;10.33;3.90;;;;;;;;;;5047116;28;20070;-81
2020/12/14 00:36:30;;;;;;;15.13;3.73;;;;;;;;;;5050117;28;20033;-82
2020/12/14 00:38:56;;;;;;;11.80;4.30;;;;;;;;;;5035544;28;20029;-81
2020/12/14 00:41:22;;;;;;;10.43;3.50;;;;;;;;;;5076069;28;20028;-81
2020/12/14 00:43:49;;;;;;;11.57;4.00;;;;;;;;;;5035467;28;20041;-80
2020/12/14 00:46:16;;;;;;;7.77;2.90;;;;;;;;;;5066493;28;20025;-81
2020/12/14 00:48:42;;;;;;;12.37;4.87;;;;;;;;;;5050239;28;20052;-80
2020/12/14 00:51:08;;;;;;;15.53;4.33;;;;;;;;;;5072272;28;20029;-81
2020/12/14 00:53:34;;;;;;;6.33;3.47;;;;;;;;;;5079076;28;20016;-80
2020/12/14 00:56:01;;;;;;;15.80;4.97;;;;;;;;;;5041114;28;20013;-82
2020/12/14 00:58:27;;;;;;;14.23;5.00;;;;;;;;;;5060294;28;20033;-81
2020/12/14 01:00:53;;;;;;;14.03;4.40;;;;;;;;;;5040847;28;20040;-81
2020/12/14 01:03:19;;;;;;;8.13;4.33;;;;;;;;;;5042204;28;20040;-81
2020/12/14 01:05:45;;;;;;;9.67;3.73;;;;;;;;;;5058817;28;20093;-81
2020/12/14 01:08:11;;;;;;;9.07;3.73;;;;;;;;;;5040488;28;20053;-81
2020/12/14 01:10:37;;;;;;;10.20;3.53;;;;;;;;;;5078106;28;20502;-82
2020/12/14 01:13:03;;;;;;;12.70;4.63;;;;;;;;;;5043157;28;20041;-80
2020/12/14 01:15:29;;;;;;;12.03;4.30;;;;;;;;;;5040809;28;20025;-81
2020/12/14 01:17:55;;;;;;;11.67;5.37;;;;;;;;;;5079122;28;20032;-80
2020/12/14 01:20:21;;;;;;;12.97;3.70;;;;;;;;;;5057952;28;20025;-80
2020/12/14 01:22:47;;;;;;;9.53;4.03;;;;;;;;;;5059384;28;20052;-82
2020/12/14 01:25:13;;;;;;;9.97;4.90;;;;;;;;;;5038922;28;20033;-82
2020/12/14 01:27:39;;;;;;;8.07;4.83;;;;;;;;;;5053750;28;20032;-80
2020/12/14 01:30:05;;;;;;;13.03;6.23;;;;;;;;;;5041080;28;20028;-81
2020/12/14 01:32:31;;;;;;;7.73;3.67;;;;;;;;;;5072204;28;20376;-80
2020/12/14 01:34:57;;;;;;;6.03;3.03;;;;;;;;;;5025589;28;20036;-80
2020/12/14 01:37:23;;;;;;;11.80;5.10;;;;;;;;;;5042024;28;20055;-83
2020/12/14 01:39:49;;;;;;;13.97;5.80;;;;;;;;;;5043011;28;20029;-80
2020/12/14 01:42:15;;;;;;;11.00;5.67;;;;;;;;;;5041274;28;20051;-79
2020/12/14 01:44:41;;;;;;;13.53;5.40;;;;;;;;;;5026203;28;20036;-81
2020/12/14 01:47:07;;;;;;;9.53;4.43;;;;;;;;;;5042092;28;20025;-80
2020/12/14 01:49:33;;;;;;;10.00;3.87;;;;;;;;;;5027012;28;20043;-81
2020/12/14 01:51:59;;;;;;;14.70;6.27;;;;;;;;;;5061492;28;20053;-81
2020/12/14 01:54:28;;;;;;;12.03;4.40;;;;;;;;;;5031654;28;20060;-82
2020/12/14 01:56:55;;;;;;;14.03;5.47;;;;;;;;;;5068783;28;20009;-82
2020/12/14 01:59:22;;;;;;;14.80;6.40;;;;;;;;;;5051438;28;20031;-81
2020/12/14 02:01:48;;;;;;;20.80;7.90;;;;;;;;;;5027799;28;20037;-80
2020/12/14 02:04:14;;;;;;;22.50;7.10;;;;;;;;;;5045652;28;20079;-81
2020/12/14 02:06:40;;;;;;;14.77;6.70;;;;;;;;;;5029072;28;20472;-81
2020/12/14 02:09:06;;;;;;;21.37;9.37;;;;;;;;;;5046228;28;20052;-80
2020/12/14 02:11:32;;;;;;;11.40;5.03;;;;;;;;;;5044388;28;20030;-81
2020/12/14 02:13:58;;;;;;;23.43;11.63;;;;;;;;;;5044146;28;20044;-81
2020/12/14 02:16:24;;;;;;;15.77;6.90;;;;;;;;;;5029828;28;20025;-80
2020/12/14 02:18:50;;;;;;;11.07;6.50;;;;;;;;;;5047365;28;20136;-80
2020/12/14 02:21:16;;;;;;;17.40;5.60;;;;;;;;;;5049490;28;20055;-81
2020/12/14 02:23:45;;;;;;;11.13;5.37;;;;;;;;;;5066962;28;20025;-81
2020/12/14 02:26:11;;;;;;;16.50;9.50;;;;;;;;;;5067239;28;20048;-82
2020/12/14 02:28:37;;;;;;;16.80;8.37;;;;;;;;;;5054013;28;20029;-81
2020/12/14 02:31:04;;;;;;;17.00;7.20;;;;;;;;;;5078448;28;20044;-82
2020/12/14 02:33:30;;;;;;;18.23;7.67;;;;;;;;;;5050243;28;20044;-81
2020/12/14 02:35:56;;;;;;;12.63;6.87;;;;;;;;;;5032379;28;20033;-80
2020/12/14 02:38:23;;;;;;;12.27;6.70;;;;;;;;;;5075464;28;20077;-82
2020/12/14 02:40:49;;;;;;;12.80;5.73;;;;;;;;;;5055100;28;20102;-81
2020/12/14 02:43:15;;;;;;;10.37;7.73;;;;;;;;;;5059935;28;20092;-81
2020/12/14 02:45:41;;;;;;;9.50;5.17;;;;;;;;;;5045896;28;20025;-81
2020/12/14 02:48:07;;;;;;;11.80;4.47;;;;;;;;;;5062056;28;20045;-81
2020/12/14 02:50:35;;;;;;;14.10;6.70;;;;;;;;;;5044229;28;20060;-80
2020/12/14 02:53:04;;;;;;;7.00;3.57;;;;;;;;;;5047849;28;20044;-82
2020/12/14 02:55:31;;;;;;;11.13;7.17;;;;;;;;;;5037066;28;20040;-82
2020/12/14 02:57:57;;;;;;;14.00;7.17;;;;;;;;;;5063292;28;20096;-80
2020/12/14 03:00:23;;;;;;;13.37;6.30;;;;;;;;;;5045061;28;20104;-81
2020/12/14 03:02:49;;;;;;;12.57;5.83;;;;;;;;;;5046368;28;20529;-80
2020/12/14 03:05:15;;;;;;;10.77;5.67;;;;;;;;;;5031729;28;20036;-80
2020/12/14 03:07:42;;;;;;;8.30;3.37;;;;;;;;;;5049333;28;20041;-81
2020/12/14 03:10:08;;;;;;;11.70;7.20;;;;;;;;;;5052011;28;20041;-81
2020/12/14 03:12:34;;;;;;;14.17;9.43;;;;;;;;;;5054963;28;20067;-81
2020/12/14 03:15:00;;;;;;;15.97;9.90;;;;;;;;;;5052381;28;20032;-81
2020/12/14 03:17:27;;;;;;;13.00;5.97;;;;;;;;;;5049350;28;20026;-81
2020/12/14 03:19:53;;;;;;;14.60;9.33;;;;;;;;;;5055305;28;20025;-81
2020/12/14 03:22:19;;;;;;;14.73;11.23;;;;;;;;;;5059283;28;20020;-82
2020/12/14 03:24:45;;;;;;;14.53;9.43;;;;;;;;;;5041020;28;20056;-82
2020/12/14 03:27:12;;;;;;;7.30;5.37;;;;;;;;;;5058612;28;20028;-81
2020/12/14 03:29:38;;;;;;;18.63;11.03;;;;;;;;;;5060412;28;20033;-81
2020/12/14 03:32:04;;;;;;;11.60;9.17;;;;;;;;;;5033193;28;20025;-80
2020/12/14 03:34:30;;;;;;;15.97;9.10;;;;;;;;;;5068280;28;20033;-82
2020/12/14 03:36:59;;;;;;;11.93;6.33;;;;;;;;;;5036568;28;20029;-81
2020/12/14 03:39:25;;;;;;;14.63;10.93;;;;;;;;;;5077740;28;20028;-81
2020/12/14 03:41:51;;;;;;;12.93;10.23;;;;;;;;;;5041362;28;20029;-81
2020/12/14 03:44:17;;;;;;;18.97;15.40;;;;;;;;;;5028134;28;20044;-80
2020/12/14 03:46:43;;;;;;;7.23;3.43;;;;;;;;;;5045234;28;20033;-81
2020/12/14 03:49:09;;;;;;;11.17;9.10;;;;;;;;;;5028587;28;20036;-81
2020/12/14 03:51:35;;;;;;;9.17;8.03;;;;;;;;;;5027811;28;20029;-80
2020/12/14 03:54:01;;;;;;;11.83;8.57;;;;;;;;;;5028515;28;20037;-80
2020/12/14 03:56:27;;;;;;;15.83;10.87;;;;;;;;;;5044187;28;20358;-81
2020/12/14 03:58:54;;;;;;;19.30;10.63;;;;;;;;;;5028103;28;20396;-81
2020/12/14 04:01:21;;;;;;;19.77;13.87;;;;;;;;;;5045710;28;20103;-81
2020/12/14 04:03:47;;;;;;;15.40;9.93;;;;;;;;;;5044769;28;20052;-81
2020/12/14 04:06:17;;;;;;;18.57;13.23;;;;;;;;;;5047380;28;20039;-81
2020/12/14 04:08:43;;;;;;;14.97;11.13;;;;;;;;;;5046956;28;20049;-81
2020/12/14 04:11:10;;;;;;;18.63;11.30;;;;;;;;;;5031849;28;20029;-82
2020/12/14 04:13:36;;;;;;;8.27;4.70;;;;;;;;;;5048427;28;20067;-82
2020/12/14 04:16:02;;;;;;;21.87;12.73;;;;;;;;;;5049914;28;20050;-82
2020/12/14 04:18:28;;;;;;;23.27;15.53;;;;;;;;;;5034013;28;20052;-82
2020/12/14 04:20:55;;;;;;;23.70;17.30;;;;;;;;;;5037163;28;20056;-82
2020/12/14 04:23:22;;;;;;;26.47;15.63;;;;;;;;;;5062205;28;20032;-83
2020/12/14 04:25:48;;;;;;;26.93;16.13;;;;;;;;;;5059666;28;20021;-82
2020/12/14 04:28:14;;;;;;;41.47;20.57;;;;;;;;;;5074287;23;20056;-81
2020/12/14 04:30:40;;;;;;;24.77;17.13;;;;;;;;;;5052347;28;20100;-82
2020/12/14 04:33:06;;;;;;;45.33;25.43;;;;;;;;;;5046451;28;20039;-82
2020/12/14 04:35:33;;;;;;;48.93;27.27;;;;;;;;;;5065495;28;20028;-82
2020/12/14 04:37:59;;;;;;;33.17;18.50;;;;;;;;;;5049811;28;20025;-82
2020/12/14 04:40:29;;;;;;;27.93;16.83;;;;;;;;;;5070572;28;20025;-82
2020/12/14 04:42:57;;;;;;;16.50;11.50;;;;;;;;;;5050521;28;20097;-81
2020/12/14 04:45:24;;;;;;;18.83;14.37;;;;;;;;;;5051685;28;20483;-82
2020/12/14 04:47:54;;;;;;;26.50;14.17;;;;;;;;;;5074103;28;20064;-83
2020/12/14 04:50:21;;;;;;;20.63;15.57;;;;;;;;;;5063000;28;20025;-82
2020/12/14 04:52:48;;;;;;;21.90;15.27;;;;;;;;;;5048961;28;20025;-82
2020/12/14 04:55:18;;;;;;;23.97;14.70;;;;;;;;;;5052408;28;20025;-82
2020/12/14 04:57:44;;;;;;;28.23;18.47;;;;;;;;;;5057054;28;20009;-82
2020/12/14 05:00:10;;;;;;;39.90;23.13;;;;;;;;;;5051930;28;20025;-81
2020/12/14 05:02:36;;;;;;;46.13;25.00;;;;;;;;;;5051980;28;20040;-82
2020/12/14 05:05:03;;;;;;;49.27;24.43;;;;;;;;;;5052710;28;20025;-82
2020/12/14 05:07:42;;;;;;;56.73;24.83;;;;;;;;;;5054167;28;20028;-82
2020/12/14 05:10:08;;;;;;;44.40;22.17;;;;;;;;;;5056734;28;20048;-82
2020/12/14 05:12:39;;;;;;;47.37;23.87;;;;;;;;;;5058640;28;20025;-82
2020/12/14 05:15:14;;;;;;;44.70;21.23;;;;;;;;;;5057739;28;20025;-82
2020/12/14 05:17:40;;;;;;;31.87;17.97;;;;;;;;;;5049958;28;20039;-82
2020/12/14 05:20:13;;;;;;;25.93;14.73;;;;;;;;;;5050437;28;20025;-82
2020/12/14 05:22:39;;;;;;;15.53;10.67;;;;;;;;;;5053894;28;20029;-82
2020/12/14 05:25:05;;;;;;;44.43;25.73;;;;;;;;;;5056905;28;20040;-81
2020/12/14 05:27:33;;;;;;;59.33;28.77;;;;;;;;;;5041909;28;20017;-81
2020/12/14 05:29:59;;;;;;;66.67;31.53;;;;;;;;;;5057071;28;20048;-82
2020/12/14 05:32:25;;;;;;;39.60;20.77;;;;;;;;;;5060594;28;20029;-81
2020/12/14 05:34:51;;;;;;;59.63;31.13;;;;;;;;;;5060709;28;20036;-82
2020/12/14 05:37:17;;;;;;;58.57;27.17;;;;;;;;;;5059622;28;20055;-82
2020/12/14 05:39:44;;;;;;;84.13;41.53;;;;;;;;;;5061414;28;20021;-81
2020/12/14 05:42:12;;;;;;;75.00;33.57;;;;;;;;;;5058812;28;20021;-82
2020/12/14 05:44:39;;;;;;;61.73;26.80;;;;;;;;;;5058695;28;20072;-82
2020/12/14 05:47:21;;;;;;;58.93;25.43;;;;;;;;;;5048546;28;20441;-81
2020/12/14 05:49:47;;;;;;;92.97;38.20;;;;;;;;;;5048947;28;20031;-82
2020/12/14 05:52:17;;;;;;;52.57;25.13;;;;;;;;;;5067074;28;20025;-82
2020/12/14 05:54:49;;;;;;;84.60;36.73;;;;;;;;;;5051965;28;20048;-82
2020/12/14 05:57:19;;;;;;;106.20;41.13;;;;;;;;;;5059019;28;20033;-83
2020/12/14 05:59:45;;;;;;;120.57;36.07;;;;;;;;;;5059783;28;20020;-81
2020/12/14 06:02:14;;;;;;;113.47;45.13;;;;;;;;;;5053779;28;20025;-82
2020/12/14 06:04:40;;;;;;;125.53;44.73;;;;;;;;;;5053728;28;20033;-84
2020/12/14 06:07:09;;;;;;;102.93;30.70;;;;;;;;;;5076940;28;20060;-82
2020/12/14 06:09:37;;;;;;;106.30;42.17;;;;;;;;;;5059508;28;20111;-82
2020/12/14 06:12:04;;;;;;;87.40;38.97;;;;;;;;;;5060887;28;20013;-82
2020/12/14 06:14:38;;;;;;;120.20;57.30;;;;;;;;;;5067932;28;20029;-81
2020/12/14 06:17:08;;;;;;;164.25;48.78;;;;;;;;;;5049238;28;20028;-81
2020/12/14 06:19:34;;;;;;;149.13;55.57;;;;;;;;;;5052430;28;20025;-82
2020/12/14 06:22:02;;;;;;;154.03;49.43;;;;;;;;;;5053261;28;20021;-82
2020/12/14 06:24:29;;;;;;;169.40;54.63;;;;;;;;;;5057498;28;20037;-82
2020/12/14 06:26:55;;;;;;;165.33;57.97;;;;;;;;;;5078415;28;20017;-83
2020/12/14 06:29:30;;;;;;;160.50;56.97;;;;;;;;;;5078106;28;20055;-83
2020/12/14 06:31:57;;;;;;;183.33;52.10;;;;;;;;;;5078904;28;20032;-83
2020/12/14 06:34:32;;;;;;;183.63;54.53;;;;;;;;;;5060536;28;20025;-82
2020/12/14 06:36:58;;;;;;;177.33;42.43;;;;;;;;;;5061213;28;20027;-83
2020/12/14 06:39:25;;;;;;;166.77;67.80;;;;;;;;;;5060009;28;20029;-81
2020/12/14 06:41:52;;;;;;;160.00;74.80;;;;;;;;;;5074120;28;20017;-81
2020/12/14 06:44:18;;;;;;;160.97;50.20;;;;;;;;;;5048766;28;20051;-83
2020/12/14 06:46:45;;;;;;;172.33;66.30;;;;;;;;;;5049060;28;20104;-82
2020/12/14 06:49:11;;;;;;;187.47;54.73;;;;;;;;;;5048373;28;20088;-82
2020/12/14 06:51:53;;;;;;;195.50;55.90;;;;;;;;;;5049322;28;20055;-82
2020/12/14 06:54:37;;;;;;;183.67;53.73;;;;;;;;;;5070942;28;20024;-83
2020/12/14 06:57:03;;;;;;;168.23;60.33;;;;;;;;;;5060712;28;20021;-82
2020/12/14 06:59:30;;;;;;;186.13;55.10;;;;;;;;;;5057549;28;20047;-83
2020/12/14 07:01:57;;;;;;;174.10;60.07;;;;;;;;;;5073733;28;20033;-83
2020/12/14 07:04:29;;;;;;;156.53;54.40;;;;;;;;;;5062969;28;20044;-83
2020/12/14 07:06:55;;;;;;;189.17;59.83;;;;;;;;;;5081945;28;20028;-84
2020/12/14 07:09:28;;;;;;;184.73;59.93;;;;;;;;;;5058195;28;20025;-82
2020/12/14 07:12:14;;;;;;;174.37;63.57;;;;;;;;;;5048127;28;20052;-82
2020/12/14 07:14:48;;;;;;;188.70;59.40;;;;;;;;;;5054403;28;20033;-83
2020/12/14 07:17:28;;;;;;;192.03;57.07;;;;;;;;;;5053810;28;20083;-83
2020/12/14 07:19:54;;;;;;;172.60;61.90;;;;;;;;;;5056334;28;20025;-84
2020/12/14 07:22:21;;;;;;;159.30;62.20;;;;;;;;;;5055541;28;20120;-84
2020/12/14 07:24:52;;;;;;;202.87;54.53;;;;;;;;;;5074590;28;20033;-85
2020/12/14 07:27:18;;;;;;;154.10;62.10;;;;;;;;;;5055306;28;20025;-83
2020/12/14 07:29:44;;;;;;;121.10;58.93;;;;;;;;;;5055644;28;20053;-84
2020/12/14 07:32:10;;;;;;;158.40;47.13;;;;;;;;;;5072807;28;20044;-84
2020/12/14 07:34:36;;;;;;;136.53;55.50;;;;;;;;;;5058092;28;20115;-84
2020/12/14 07:37:03;;;;;;;135.30;53.33;;;;;;;;;;5055440;28;20092;-84
2020/12/14 07:39:29;;;;;;;134.83;53.83;;;;;;;;;;5057889;28;20092;-84
2020/12/14 07:41:55;;;;;;;111.10;54.93;;;;;;;;;;5059197;28;20029;-85
2020/12/14 07:44:21;;;;;;;140.07;55.60;;;;;;;;;;5081345;28;20048;-85
2020/12/14 07:46:47;;;;;;;86.37;36.20;;;;;;;;;;5063448;28;20009;-85
2020/12/14 07:49:15;;;;;;;116.17;49.57;;;;;;;;;;5064086;28;20028;-85
2020/12/14 07:51:45;;;;;;;107.93;49.40;;;;;;;;;;5063822;28;20009;-83
2020/12/14 07:54:16;;;;;;;107.20;49.10;;;;;;;;;;5063814;28;20033;-84
2020/12/14 07:56:49;;;;;;;117.53;50.73;;;;;;;;;;5062678;28;20089;-84
2020/12/14 07:59:20;;;;;;;85.80;48.22;;;;;;;;;;5059593;28;20041;-85
2020/12/14 08:01:47;;;;;;;116.57;48.70;;;;;;;;;;5075787;28;20441;-83
2020/12/14 08:04:20;;;;;;;92.60;47.07;;;;;;;;;;5057049;28;20032;-82
2020/12/14 08:06:47;;;;;;;82.10;48.30;;;;;;;;;;5076072;28;20024;-84
2020/12/14 08:09:14;;;;;;;98.57;50.10;;;;;;;;;;5075365;28;20067;-82
2020/12/14 08:11:41;;;;;;;92.17;47.67;;;;;;;;;;5062686;28;20036;-86
2020/12/14 08:14:08;;;;;;;84.97;50.03;;;;;;;;;;5062289;28;20043;-85
2020/12/14 08:16:35;;;;;;;112.10;51.97;;;;;;;;;;5062475;28;20120;-86
2020/12/14 08:19:01;;;;;;;109.30;52.27;;;;;;;;;;5062513;28;20029;-85
2020/12/14 08:21:27;;;;;;;109.00;51.53;;;;;;;;;;5054939;28;20025;-84
2020/12/14 08:23:56;;;;;;;96.43;53.90;;;;;;;;;;5056099;28;20362;-83
2020/12/14 08:26:29;;;;;;;79.60;46.30;;;;;;;;;;5056189;28;20032;-82
2020/12/14 08:29:02;;;;;;;75.57;37.60;;;;;;;;;;5072970;28;20396;-81
2020/12/14 08:31:28;;;;;;;95.93;53.20;;;;;;;;;;5074396;28;20021;-85
2020/12/14 08:33:56;;;;;;;89.87;51.03;;;;;;;;;;5056017;28;20023;-82
2020/12/14 08:36:22;;;;;;;71.03;43.27;;;;;;;;;;5055140;28;20078;-83
2020/12/14 08:38:49;;;;;;;99.77;49.80;;;;;;;;;;5058355;28;20025;-85
2020/12/14 08:41:19;;;;;;;74.97;42.43;;;;;;;;;;5059753;28;20021;-85
2020/12/14 08:43:45;;;;;;;74.67;43.40;;;;;;;;;;5075775;28;20040;-83
2020/12/14 08:46:14;;;;;;;60.07;38.67;;;;;;;;;;5057320;28;20494;-83
2020/12/14 08:48:52;;;;;;;86.07;43.70;;;;;;;;;;5074545;28;20079;-84
2020/12/14 08:51:21;;;;;;;78.63;41.33;;;;;;;;;;5055419;28;20097;-84
2020/12/14 08:53:50;;;;;;;57.83;39.67;;;;;;;;;;5056878;28;20029;-83
2020/12/14 08:56:18;;;;;;;65.10;40.60;;;;;;;;;;5056930;28;20025;-84
2020/12/14 08:58:50;;;;;;;88.20;36.27;;;;;;;;;;5056960;28;20031;-84
2020/12/14 09:01:16;;;;;;;57.83;39.23;;;;;;;;;;5053441;28;20021;-83
2020/12/14 09:03:46;;;;;;;52.67;35.17;;;;;;;;;;5072531;28;20052;-84
2020/12/14 09:06:28;;;;;;;82.27;44.40;;;;;;;;;;5053385;28;20036;-82
2020/12/14 09:08:59;;;;;;;54.70;36.17;;;;;;;;;;5053022;28;20060;-83
2020/12/14 09:11:28;;;;;;;84.37;43.13;;;;;;;;;;5054214;28;20088;-83
2020/12/14 09:13:54;;;;;;;51.87;35.07;;;;;;;;;;5071994;28;20032;-84
2020/12/14 09:16:20;;;;;;;50.40;32.23;;;;;;;;;;5053828;28;20032;-83
2020/12/14 09:18:47;;;;;;;75.17;39.00;;;;;;;;;;5056628;28;20032;-83
2020/12/14 09:21:13;;;;;;;39.43;27.10;;;;;;;;;;5073642;28;20029;-83
2020/12/14 09:23:39;;;;;;;49.53;32.80;;;;;;;;;;5061336;28;20048;-83
2020/12/14 09:26:05;;;;;;;59.27;31.90;;;;;;;;;;5060223;28;20036;-84
2020/12/14 09:28:36;;;;;;;49.50;30.10;;;;;;;;;;5060620;28;20092;-85
2020/12/14 09:31:03;;;;;;;49.37;30.40;;;;;;;;;;5061465;28;20021;-83
2020/12/14 09:33:29;;;;;;;63.07;30.57;;;;;;;;;;5062548;28;20088;-84
2020/12/14 09:38:31;;;;;;;41.33;26.23;;;;;;;;;;4248043;22;20063;-84
2020/12/14 09:40:57;;;;;;;55.67;28.87;;;;;;;;;;5060958;28;20036;-84
2020/12/14 09:43:25;;;;;;;43.20;27.57;;;;;;;;;;5075516;28;20048;-84
2020/12/14 09:45:52;;;;;;;48.03;26.20;;;;;;;;;;5071446;28;20001;-84
2020/12/14 09:48:18;;;;;;;46.13;27.60;;;;;;;;;;5053684;28;20522;-85
2020/12/14 09:50:44;;;;;;;55.07;30.90;;;;;;;;;;5056539;28;20029;-83
2020/12/14 09:53:11;;;;;;;43.67;28.60;;;;;;;;;;5056567;28;20025;-84
2020/12/14 09:55:37;;;;;;;41.60;26.33;;;;;;;;;;5060540;28;20097;-82
2020/12/14 09:58:04;;;;;;;45.27;28.57;;;;;;;;;;5061523;28;20021;-84
2020/12/14 10:00:30;;;;;;;60.07;27.10;;;;;;;;;;5059170;28;20014;-82
2020/12/14 10:02:56;;;;;;;42.17;27.63;;;;;;;;;;5059672;28;20017;-83
2020/12/14 10:05:24;;;;;;;42.17;30.17;;;;;;;;;;5075389;28;20119;-83
2020/12/14 10:07:50;;;;;;;38.93;25.87;;;;;;;;;;5055012;28;20020;-83
2020/12/14 10:10:17;;;;;;;43.97;28.27;;;;;;;;;;5069900;28;20024;-82
2020/12/14 10:12:43;;;;;;;36.97;27.10;;;;;;;;;;5070302;28;20021;-84
2020/12/14 10:15:09;;;;;;;35.97;23.87;;;;;;;;;;5054113;28;20381;-84
2020/12/14 10:17:38;;;;;;;30.07;20.80;;;;;;;;;;5072100;28;20515;-84
2020/12/14 10:20:05;;;;;;;26.53;18.10;;;;;;;;;;5050866;28;20029;-82
2020/12/14 10:22:31;;;;;;;28.87;19.27;;;;;;;;;;5071578;28;20021;-81
2020/12/14 10:24:57;;;;;;;22.40;15.07;;;;;;;;;;5053001;28;20061;-83
2020/12/14 10:27:24;;;;;;;16.50;11.33;;;;;;;;;;5048903;28;20044;-80
2020/12/14 10:29:50;;;;;;;20.97;15.37;;;;;;;;;;5071086;28;20081;-84
2020/12/14 10:32:16;;;;;;;22.90;15.30;;;;;;;;;;5053421;28;20404;-81
2020/12/14 10:34:42;;;;;;;16.47;11.00;;;;;;;;;;5056485;28;20029;-81
2020/12/14 10:37:08;;;;;;;19.87;13.83;;;;;;;;;;5075966;28;20013;-82
2020/12/14 10:39:34;;;;;;;22.40;14.00;;;;;;;;;;5065545;28;20049;-82
2020/12/14 10:42:00;;;;;;;15.10;10.00;;;;;;;;;;5061073;28;20025;-82
2020/12/14 10:44:30;;;;;;;13.17;9.23;;;;;;;;;;5064466;28;20067;-82
2020/12/14 10:46:57;;;;;;;21.97;13.60;;;;;;;;;;5062047;28;20093;-82
2020/12/14 10:49:23;;;;;;;12.60;10.03;;;;;;;;;;5064577;28;20040;-83
2020/12/14 10:51:49;;;;;;;13.90;9.17;;;;;;;;;;5065236;28;20017;-82
2020/12/14 10:54:15;;;;;;;15.50;7.93;;;;;;;;;;5057356;28;20033;-82
2020/12/14 10:56:41;;;;;;;10.17;6.37;;;;;;;;;;5071508;28;20064;-82
2020/12/14 10:59:07;;;;;;;9.70;5.60;;;;;;;;;;5056361;28;20029;-82
2020/12/14 11:01:33;;;;;;;10.43;5.67;;;;;;;;;;5056891;28;20099;-81
2020/12/14 11:03:59;;;;;;;12.93;5.00;;;;;;;;;;5059667;28;20041;-80
2020/12/14 11:06:29;;;;;;;10.93;4.63;;;;;;;;;;5059773;28;20047;-82
2020/12/14 11:08:56;;;;;;;8.23;3.23;;;;;;;;;;5057743;28;20060;-82
2020/12/14 11:11:22;;;;;;;12.20;3.00;;;;;;;;;;5055083;28;20036;-82
2020/12/14 11:13:49;;;;;;;7.43;2.50;;;;;;;;;;5071278;28;20029;-82
2020/12/14 11:16:15;;;;;;;5.97;2.30;;;;;;;;;;5076812;28;20009;-81
2020/12/14 11:18:41;;;;;;;5.93;2.90;;;;;;;;;;5073228;28;20025;-82
2020/12/14 11:21:10;;;;;;;6.37;2.80;;;;;;;;;;5060719;28;20013;-83
2020/12/14 11:23:36;;;;;;;6.87;2.40;;;;;;;;;;5047725;28;20041;-85
2020/12/14 11:26:04;;;;;;;7.97;2.27;;;;;;;;;;5133456;23;20115;-82
2020/12/14 11:28:30;;;;;;;6.73;2.37;;;;;;;;;;5024808;28;20073;-82
2020/12/14 11:30:56;;;;;;;5.30;2.00;;;;;;;;;;5335446;23;20048;-82
2020/12/14 11:33:23;;;;;;;4.80;1.60;;;;;;;;;;5060081;28;20033;-85
2020/12/14 11:55:30;;;;;;;4.97;1.98;;;;;;;;;;5131395;27;20362;-80
2020/12/14 11:57:56;;;;;;;7.72;2.13;;;;;;;;;;5133961;28;20043;-81
2020/12/14 12:00:22;;;;;;;7.27;2.20;;;;;;;;;;5158336;23;20090;-83
2020/12/14 12:02:48;;;;;;;3.93;1.60;;;;;;;;;;5091050;28;20044;-84
2020/12/14 12:05:14;;;;;;;6.33;1.90;;;;;;;;;;5082525;28;20067;-82
2020/12/14 12:07:40;;;;;;;6.15;2.08;;;;;;;;;;5083533;28;20025;-82
2020/12/14 12:10:07;;;;;;;6.40;2.03;;;;;;;;;;5085685;28;20089;-82
2020/12/14 12:12:33;;;;;;;6.53;2.25;;;;;;;;;;5083709;28;20485;-83
2020/12/14 12:14:59;;;;;;;5.13;1.60;;;;;;;;;;5083893;28;20032;-84
2020/12/14 12:17:25;;;;;;;9.23;2.63;;;;;;;;;;5084729;28;20036;-81
2020/12/14 12:19:51;;;;;;;3.95;1.85;;;;;;;;;;5082203;28;20039;-82
2020/12/14 12:22:19;;;;;;;6.55;2.05;;;;;;;;;;5086437;28;20028;-82
2020/12/14 12:24:45;;;;;;;6.82;2.20;;;;;;;;;;5086097;28;20058;-82
2020/12/14 12:27:11;;;;;;;8.02;2.22;;;;;;;;;;5085045;28;20024;-82
2020/12/14 12:29:37;;;;;;;5.93;2.65;;;;;;;;;;5085933;28;20062;-83
2020/12/14 12:32:03;;;;;;;5.90;2.53;;;;;;;;;;5087347;28;20028;-80
2020/12/14 12:34:30;;;;;;;5.03;2.03;;;;;;;;;;5094067;28;20024;-81
2020/12/14 12:36:56;;;;;;;5.95;2.13;;;;;;;;;;5090971;28;20025;-82
2020/12/14 12:39:22;;;;;;;3.67;2.05;;;;;;;;;;5082564;28;20028;-81
2020/12/14 12:41:50;;;;;;;7.38;2.58;;;;;;;;;;5084981;28;20036;-81
2020/12/14 12:44:17;;;;;;;6.47;2.65;;;;;;;;;;5082906;28;20017;-81
2020/12/14 12:46:43;;;;;;;6.10;2.22;;;;;;;;;;5085990;28;20033;-80
2020/12/14 12:49:10;;;;;;;5.50;2.50;;;;;;;;;;5087345;28;20028;-81
2020/12/14 12:51:36;;;;;;;6.57;2.80;;;;;;;;;;5088206;28;20040;-81
2020/12/14 12:54:11;;;;;;;6.50;2.10;;;;;;;;;;5094282;28;20012;-82
2020/12/14 12:56:37;;;;;;;7.65;2.28;;;;;;;;;;5081329;28;20010;-82
2020/12/14 12:59:03;;;;;;;3.85;1.73;;;;;;;;;;5081099;28;20040;-82
2020/12/14 13:01:29;;;;;;;8.35;3.13;;;;;;;;;;5080899;28;20057;-82
2020/12/14 13:03:56;;;;;;;4.90;2.00;;;;;;;;;;5080268;28;20052;-82
2020/12/14 13:06:26;;;;;;;6.45;2.55;;;;;;;;;;5079326;28;20009;-83
2020/12/14 13:08:52;;;;;;;7.20;2.45;;;;;;;;;;5079860;28;20060;-81
2020/12/14 13:11:22;;;;;;;5.90;2.83;;;;;;;;;;5078857;28;20032;-83
2020/12/14 13:13:48;;;;;;;6.53;2.40;;;;;;;;;;5079530;28;20021;-82
2020/12/14 13:16:14;;;;;;;6.75;2.20;;;;;;;;;;5078008;28;20009;-82
2020/12/14 13:18:40;;;;;;;5.68;2.25;;;;;;;;;;5074897;28;20043;-80
2020/12/14 13:21:07;;;;;;;6.70;2.28;;;;;;;;;;5074214;28;20017;-82
2020/12/14 13:23:33;;;;;;;7.63;2.65;;;;;;;;;;5077406;28;20029;-82
2020/12/14 13:25:59;;;;;;;8.15;2.13;;;;;;;;;;5074703;28;20017;-81
2020/12/14 13:28:25;;;;;;;10.38;3.13;;;;;;;;;;5077467;28;20013;-82
2020/12/14 13:30:51;;;;;;;6.68;2.63;;;;;;;;;;5078095;28;20179;-80
2020/12/14 13:33:17;;;;;;;7.15;2.05;;;;;;;;;;5072126;28;20056;-81
2020/12/14 13:35:43;;;;;;;8.93;2.53;;;;;;;;;;5072686;28;20057;-82
2020/12/14 13:38:09;;;;;;;7.95;2.33;;;;;;;;;;5069237;28;20029;-81
2020/12/14 13:40:36;;;;;;;6.30;2.15;;;;;;;;;;5075883;28;20093;-82
2020/12/14 13:43:02;;;;;;;6.50;2.00;;;;;;;;;;5077215;28;20017;-84
2020/12/14 13:45:28;;;;;;;9.70;3.40;;;;;;;;;;5078013;28;20025;-82
2020/12/14 13:47:54;;;;;;;6.32;2.50;;;;;;;;;;5076697;28;20035;-81
2020/12/14 13:50:20;;;;;;;7.40;2.80;;;;;;;;;;5072919;28;20033;-82
2020/12/14 13:52:46;;;;;;;6.68;2.22;;;;;;;;;;5072929;28;20041;-82
2020/12/14 13:55:13;;;;;;;7.40;2.40;;;;;;;;;;5075315;28;20029;-81
2020/12/14 13:57:39;;;;;;;6.07;2.45;;;;;;;;;;5078263;28;20032;-81
2020/12/14 14:00:05;;;;;;;11.60;3.10;;;;;;;;;;5079330;28;20040;-82
2020/12/14 14:02:31;;;;;;;11.45;3.05;;;;;;;;;;5063074;28;20048;-83
2020/12/14 14:04:57;;;;;;;9.80;2.60;;;;;;;;;;5062704;28;20067;-81
2020/12/14 14:07:23;;;;;;;8.32;2.85;;;;;;;;;;5078266;28;20021;-80
2020/12/14 14:09:49;;;;;;;8.35;3.08;;;;;;;;;;5079258;28;20054;-83
2020/12/14 14:12:15;;;;;;;8.77;2.88;;;;;;;;;;5078820;28;20013;-83
2020/12/14 14:14:42;;;;;;;6.95;2.40;;;;;;;;;;5079256;28;20056;-83
2020/12/14 14:17:08;;;;;;;9.88;2.97;;;;;;;;;;5079309;28;20068;-82
2020/12/14 14:19:34;;;;;;;10.70;3.97;;;;;;;;;;5076520;28;20062;-81
2020/12/14 14:22:00;;;;;;;7.82;2.42;;;;;;;;;;5071956;28;20028;-81
2020/12/14 14:24:26;;;;;;;5.82;2.95;;;;;;;;;;5074332;28;20017;-82
2020/12/14 14:26:54;;;;;;;6.28;3.20;;;;;;;;;;5070862;28;20029;-81
2020/12/14 14:29:20;;;;;;;9.43;3.20;;;;;;;;;;5072261;28;20059;-82
2020/12/14 14:31:53;;;;;;;13.63;4.72;;;;;;;;;;5072342;28;20077;-82
2020/12/14 14:34:20;;;;;;;14.45;3.75;;;;;;;;;;5070682;28;20059;-80
2020/12/14 14:36:57;;;;;;;7.68;4.10;;;;;;;;;;5147403;23;20126;-82
2020/12/14 14:39:24;;;;;;;11.27;3.55;;;;;;;;;;5078629;28;20005;-83
2020/12/14 14:41:51;;;;;;;9.32;3.45;;;;;;;;;;5077263;28;20017;-81
2020/12/14 14:44:17;;;;;;;9.23;3.50;;;;;;;;;;5075568;28;20107;-82
2020/12/14 14:46:53;;;;;;;10.57;3.38;;;;;;;;;;5072324;28;20032;-79
2020/12/14 14:49:19;;;;;;;10.07;2.83;;;;;;;;;;5064986;28;20119;-82